Heerhugowaard, Netherlands
Current Conditions -  °F | °C
As of 7:25 AM on Saturday 25 Oct 2014 (Local Time) from EHKD Reporting Station
Overcast Overcast  
Wind Chill: 54°   Ceiling: 4500
Heat Index: 54°   Visibility: 6mi
Dew Point: 52°   Wind: 2mph
Humidity: 94%   Direction: 280°W
Pressure: 29.94"   Gusts: NA
Location:  52.67°N, 4.85°E
Report Text: EHKD 250525Z AUTO 28002KT 9999 OVC045 12/11 Q1014 BLU 24005KT 9000 BR FEW015 SCT040 TEMPO FEW014 SCT018
Loading
Personal Weather Stations






























Interactive Weather Map
Tropical Storm Tracking
New forecast layout! Learn more

10-Day Weather Forecast

Advertisements
Track Severe Weather on mobile